createdAt,value
2019-01-16T00:01:10.946Z,100.00
2019-01-16T00:03:49.586Z,100.00
2019-01-16T00:06:28.822Z,100.00
2019-01-16T00:09:15.128Z,100.00
2019-01-16T00:11:45.293Z,100.00
2019-01-16T00:14:32.474Z,100.00
2019-01-16T00:17:18.783Z,100.00
2019-01-16T00:19:52.919Z,100.00
2019-01-16T00:22:23.077Z,100.00
2019-01-16T00:25:09.404Z,100.00
2019-01-16T00:27:56.042Z,100.00
2019-01-16T00:30:27.253Z,100.00
2019-01-16T00:33:00.200Z,100.00
2019-01-16T00:35:33.109Z,100.00
2019-01-16T00:38:03.210Z,100.00
2019-01-16T00:40:33.311Z,100.00
2019-01-16T00:43:09.491Z,100.00
2019-01-16T00:45:48.908Z,100.00
2019-01-16T00:48:24.494Z,100.00
2019-01-16T00:50:53.299Z,100.00
2019-01-16T00:53:23.405Z,100.00
2019-01-16T00:56:09.640Z,100.00
2019-01-16T00:58:55.759Z,100.00
2019-01-16T01:01:28.435Z,100.00
2019-01-16T01:04:11.150Z,100.00
2019-01-16T01:06:41.316Z,100.00
2019-01-16T01:09:28.003Z,100.00
2019-01-16T01:11:58.220Z,100.00
2019-01-16T01:14:31.412Z,100.00
2019-01-16T01:17:04.508Z,100.00
2019-01-16T01:19:34.610Z,100.00
2019-01-16T01:22:11.744Z,100.00
2019-01-16T01:24:44.789Z,100.00
2019-01-16T01:27:30.931Z,100.00
2019-01-16T01:30:01.039Z,100.00
2019-01-16T01:32:46.523Z,100.00
2019-01-16T01:35:19.331Z,100.00
2019-01-16T01:38:05.977Z,100.00
2019-01-16T01:40:41.814Z,100.00
2019-01-16T01:43:20.921Z,100.00
2019-01-16T01:45:51.016Z,100.00
2019-01-16T01:48:39.798Z,100.00
2019-01-16T01:51:08.068Z,100.00
2019-01-16T01:53:44.310Z,100.00
2019-01-16T01:56:17.241Z,100.00
2019-01-16T01:58:50.108Z,100.00
2019-01-16T02:01:20.350Z,100.00
2019-01-16T02:04:06.466Z,100.00
2019-01-16T02:06:36.570Z,100.00
2019-01-16T02:09:08.522Z,100.00
2019-01-16T02:11:38.632Z,100.00
2019-01-16T02:14:21.160Z,100.00
2019-01-16T02:16:57.206Z,100.00
2019-01-16T02:19:33.130Z,100.00
2019-01-16T02:22:15.566Z,100.00
2019-01-16T02:24:52.625Z,100.00
2019-01-16T02:27:25.603Z,100.00
2019-01-16T02:29:58.928Z,100.00
2019-01-16T02:32:33.109Z,100.00
2019-01-16T02:35:03.226Z,100.00
2019-01-16T02:37:36.028Z,100.00
2019-01-16T02:40:10.000Z,100.00
2019-01-16T02:42:45.891Z,100.00
2019-01-16T02:45:32.798Z,100.00
2019-01-16T02:48:13.078Z,100.00
2019-01-16T02:50:43.250Z,100.00
2019-01-16T02:53:15.988Z,100.00
2019-01-16T02:55:48.886Z,100.00
2019-01-16T02:58:30.802Z,100.00
2019-01-16T03:01:04.049Z,100.00
2019-01-16T03:03:35.103Z,100.00
2019-01-16T03:06:05.224Z,100.00
2019-01-16T03:08:35.413Z,100.00
2019-01-16T03:11:05.712Z,100.00
2019-01-16T03:13:35.858Z,100.00
2019-01-16T03:16:22.086Z,100.00
2019-01-16T03:18:52.263Z,100.00
2019-01-16T03:21:22.433Z,100.00
2019-01-16T03:23:59.338Z,100.00
2019-01-16T03:26:33.013Z,100.00
2019-01-16T03:29:03.107Z,100.00
2019-01-16T03:31:33.275Z,100.00
2019-01-16T03:34:06.223Z,100.00
2019-01-16T03:36:52.847Z,100.00
2019-01-16T03:39:23.014Z,100.00
2019-01-16T03:41:54.419Z,100.00
2019-01-16T03:44:41.031Z,100.00
2019-01-16T03:47:26.600Z,100.00
2019-01-16T03:49:56.744Z,100.00
2019-01-16T03:52:35.914Z,100.00
2019-01-16T03:55:22.384Z,100.00
2019-01-16T03:57:52.555Z,100.00
2019-01-16T04:00:40.136Z,100.00
2019-01-16T04:03:13.368Z,100.00
2019-01-16T04:05:49.823Z,100.00
2019-01-16T04:08:22.406Z,100.00
2019-01-16T04:11:04.558Z,100.00
2019-01-16T04:13:40.575Z,100.00
2019-01-16T04:16:13.639Z,100.00
2019-01-16T04:18:43.835Z,100.00
2019-01-16T04:21:22.776Z,100.00
2019-01-16T04:24:10.212Z,100.00
2019-01-16T04:26:49.411Z,100.00
2019-01-16T04:29:20.377Z,100.00
2019-01-16T04:31:53.229Z,100.00
2019-01-16T04:34:23.464Z,100.00
2019-01-16T04:36:56.007Z,100.00
2019-01-16T04:39:32.217Z,100.00
2019-01-16T04:42:02.317Z,100.00
2019-01-16T04:44:44.901Z,100.00
2019-01-16T04:47:20.603Z,100.00
2019-01-16T04:49:50.790Z,100.00
2019-01-16T04:52:36.320Z,100.00
2019-01-16T04:55:23.512Z,100.00
2019-01-16T04:57:53.606Z,100.00
2019-01-16T05:00:26.667Z,100.00
2019-01-16T05:03:02.549Z,100.00
2019-01-16T05:05:35.618Z,100.00
2019-01-16T05:08:23.937Z,100.00
2019-01-16T05:11:02.603Z,100.00
2019-01-16T05:13:32.846Z,100.00
2019-01-16T05:16:12.061Z,100.00
2019-01-16T05:18:58.768Z,100.00
2019-01-16T05:21:43.598Z,100.00
2019-01-16T05:24:16.452Z,100.00
2019-01-16T05:26:58.694Z,100.00
2019-01-16T05:29:34.924Z,100.00
2019-01-16T05:32:12.053Z,100.00
2019-01-16T05:34:42.192Z,100.00
2019-01-16T05:37:28.202Z,100.00
2019-01-16T05:40:01.190Z,100.00
2019-01-16T05:42:31.286Z,100.00
2019-01-16T05:45:13.340Z,100.00
2019-01-16T05:47:43.446Z,100.00
2019-01-16T05:50:32.239Z,100.00
2019-01-16T05:53:18.761Z,100.00
2019-01-16T05:56:04.981Z,100.00
2019-01-16T05:58:35.087Z,100.00
2019-01-16T06:01:05.356Z,100.00
2019-01-16T06:03:36.414Z,100.00
2019-01-16T06:06:12.851Z,100.00
2019-01-16T06:08:55.883Z,100.00
2019-01-16T06:11:26.051Z,100.00
2019-01-16T06:13:56.174Z,100.00
2019-01-16T06:16:32.350Z,100.00
2019-01-16T06:19:19.019Z,100.00
2019-01-16T06:21:52.060Z,100.00
2019-01-16T06:24:22.237Z,100.00
2019-01-16T06:26:52.399Z,100.00
2019-01-16T06:29:34.428Z,100.00
2019-01-16T06:32:04.547Z,100.00
2019-01-16T06:34:53.968Z,100.00
2019-01-16T06:37:36.075Z,100.00
2019-01-16T06:40:21.362Z,100.00
2019-01-16T06:42:51.466Z,100.00
2019-01-16T06:45:39.880Z,100.00
2019-01-16T06:48:19.190Z,100.00
2019-01-16T06:50:49.420Z,100.00
2019-01-16T06:53:31.594Z,100.00
2019-01-16T06:56:07.500Z,100.00
2019-01-16T06:58:49.726Z,100.00
2019-01-16T07:01:38.228Z,100.00
2019-01-16T07:04:17.588Z,100.00
2019-01-16T07:07:03.006Z,100.00
2019-01-16T07:09:49.483Z,100.00
2019-01-16T07:12:34.597Z,100.00
2019-01-16T07:15:27.888Z,100.00
2019-01-16T07:18:15.876Z,100.00
2019-01-16T07:20:48.688Z,100.00
2019-01-16T07:23:27.688Z,100.00
2019-01-16T07:26:13.164Z,100.00
2019-01-16T07:28:49.177Z,100.00
2019-01-16T07:31:37.496Z,100.00
2019-01-16T07:34:10.487Z,100.00
2019-01-16T07:36:56.482Z,100.00
2019-01-16T07:39:38.628Z,100.00
2019-01-16T07:42:21.123Z,100.00
2019-01-16T07:45:00.294Z,100.00
2019-01-16T07:47:30.403Z,100.00
2019-01-16T07:50:17.395Z,100.00
2019-01-16T07:53:04.202Z,100.00
2019-01-16T07:55:38.777Z,100.00
2019-01-16T07:58:11.743Z,100.00
2019-01-16T08:00:41.838Z,100.00
2019-01-16T08:03:28.192Z,100.00
2019-01-16T08:06:16.105Z,100.00
2019-01-16T08:09:02.559Z,100.00
2019-01-16T08:11:36.821Z,100.00
2019-01-16T08:14:07.375Z,100.00
2019-01-16T08:16:38.476Z,100.00
2019-01-16T08:19:11.721Z,100.00
2019-01-16T08:21:47.859Z,100.00
2019-01-16T08:24:20.864Z,100.00
2019-01-16T08:27:02.843Z,100.00
2019-01-16T08:29:33.127Z,100.00
2019-01-16T08:32:19.385Z,100.00
2019-01-16T08:37:45.219Z,100.00
2019-01-16T08:40:33.550Z,100.00
2019-01-16T08:43:06.201Z,100.00
2019-01-16T08:45:45.558Z,100.00
2019-01-16T08:48:24.677Z,100.00
2019-01-16T08:51:01.670Z,99.97
2019-01-16T08:53:41.019Z,99.65
2019-01-16T08:56:28.384Z,99.41
2019-01-16T08:59:16.553Z,99.02
2019-01-16T09:02:02.781Z,98.93
2019-01-16T09:04:36.401Z,98.64
2019-01-16T09:07:09.562Z,97.80
2019-01-16T09:09:56.206Z,97.48
2019-01-16T09:12:41.510Z,97.19
2019-01-16T09:15:23.967Z,96.43
2019-01-16T09:18:09.451Z,96.35
2019-01-16T09:20:45.468Z,95.93
2019-01-16T09:23:18.262Z,95.51
2019-01-16T09:25:48.446Z,95.01
2019-01-16T09:28:31.590Z,94.76
2019-01-16T09:31:01.683Z,94.76
2019-01-16T09:33:31.811Z,94.44
2019-01-16T09:36:17.324Z,94.30
2019-01-16T09:38:48.386Z,94.25
2019-01-16T09:41:35.040Z,93.94
2019-01-16T09:44:05.199Z,93.58
2019-01-16T09:46:41.555Z,94.10
2019-01-16T09:49:23.827Z,94.10
2019-01-16T09:51:57.820Z,93.73
2019-01-16T09:54:36.924Z,93.62
2019-01-16T09:57:23.428Z,93.07
2019-01-16T10:00:09.940Z,92.92
2019-01-16T10:02:42.855Z,92.28
2019-01-16T10:05:13.022Z,92.41
2019-01-16T10:07:43.115Z,92.48
2019-01-16T10:10:30.682Z,92.26
2019-01-16T10:13:00.776Z,92.46
2019-01-16T10:15:47.309Z,91.91
2019-01-16T10:18:29.475Z,92.83
2019-01-16T10:21:05.931Z,91.44
2019-01-16T10:23:36.570Z,92.11
2019-01-16T10:26:06.802Z,91.96
2019-01-16T10:28:55.491Z,91.79
2019-01-16T10:31:31.612Z,91.16
2019-01-16T10:34:17.828Z,91.76
2019-01-16T10:37:00.369Z,92.04
2019-01-16T10:39:37.117Z,91.24
2019-01-16T10:42:25.550Z,90.71
2019-01-16T10:45:07.748Z,90.34
2019-01-16T10:47:46.661Z,89.88
2019-01-16T10:50:33.836Z,90.33
2019-01-16T10:53:09.617Z,89.50
2019-01-16T10:55:46.012Z,89.36
2019-01-16T10:58:18.831Z,88.64
2019-01-16T11:00:48.992Z,88.85
2019-01-16T11:03:22.115Z,88.30
2019-01-16T11:05:58.375Z,89.09
2019-01-16T11:08:31.454Z,88.40
2019-01-16T11:11:17.751Z,88.93
2019-01-16T11:13:57.239Z,88.82
2019-01-16T11:16:39.609Z,88.85
2019-01-16T11:19:12.208Z,89.25
2019-01-16T11:21:42.381Z,89.18
2019-01-16T11:24:15.102Z,89.30
2019-01-16T11:26:54.168Z,89.91
2019-01-16T11:29:36.050Z,89.27
2019-01-16T11:32:09.231Z,89.31
2019-01-16T11:34:56.116Z,90.00
2019-01-16T11:37:42.401Z,90.17
2019-01-16T11:40:17.595Z,89.76
2019-01-16T11:43:04.853Z,89.24
2019-01-16T11:45:38.061Z,88.39
2019-01-16T11:48:14.022Z,88.69
2019-01-16T11:50:44.251Z,88.74
2019-01-16T11:53:23.498Z,88.75
2019-01-16T11:55:53.664Z,89.04
2019-01-16T11:58:23.769Z,89.74
2019-01-16T12:00:53.920Z,89.52
2019-01-16T12:03:41.348Z,89.39
2019-01-16T12:06:14.690Z,88.85
2019-01-16T12:09:00.814Z,88.75
2019-01-16T12:11:47.240Z,88.71
2019-01-16T12:14:26.405Z,88.87
2019-01-16T12:16:56.641Z,89.09
2019-01-16T12:19:26.803Z,88.34
2019-01-16T12:21:59.637Z,88.03
2019-01-16T12:24:38.614Z,88.21
2019-01-16T12:27:24.131Z,88.56
2019-01-16T12:29:57.535Z,88.57
2019-01-16T12:32:44.180Z,88.80
2019-01-16T12:35:27.623Z,88.04
2019-01-16T12:37:57.693Z,88.27
2019-01-16T12:40:40.060Z,88.84
2019-01-16T12:43:16.094Z,88.86
2019-01-16T12:45:47.180Z,88.70
2019-01-16T12:48:26.030Z,88.89
2019-01-16T12:51:08.336Z,88.49
2019-01-16T12:53:41.324Z,88.33
2019-01-16T12:56:23.604Z,88.10
2019-01-16T12:59:06.726Z,88.28
2019-01-16T13:01:52.908Z,87.76
2019-01-16T13:04:31.876Z,87.79
2019-01-16T13:07:02.052Z,88.46
2019-01-16T13:09:34.906Z,88.01
2019-01-16T13:12:07.975Z,87.81
2019-01-16T13:14:40.645Z,87.84
2019-01-16T13:17:16.510Z,87.54
2019-01-16T13:19:58.657Z,86.77
2019-01-16T13:22:46.106Z,87.41
2019-01-16T13:25:34.199Z,87.87
2019-01-16T13:28:04.366Z,87.58
2019-01-16T13:30:37.347Z,88.60
2019-01-16T13:33:16.813Z,88.18
2019-01-16T13:35:52.941Z,88.11
2019-01-16T13:38:24.608Z,88.46
2019-01-16T13:40:57.656Z,88.67
2019-01-16T13:43:44.237Z,88.43
2019-01-16T13:46:18.039Z,88.08
2019-01-16T13:48:54.320Z,87.86
2019-01-16T13:51:46.292Z,88.25
2019-01-16T13:54:28.398Z,88.10
2019-01-16T13:57:01.191Z,87.89
2019-01-16T13:59:40.550Z,88.07
2019-01-16T14:02:13.377Z,88.78
2019-01-16T14:05:02.043Z,88.73
2019-01-16T14:07:38.154Z,88.47
2019-01-16T14:10:11.623Z,88.61
2019-01-16T14:12:58.218Z,88.32
2019-01-16T14:15:31.340Z,88.97
2019-01-16T14:18:04.217Z,88.22
2019-01-16T14:20:34.533Z,88.08
2019-01-16T14:23:07.612Z,88.50
2019-01-16T14:25:52.719Z,87.84
2019-01-16T14:28:25.965Z,88.00
2019-01-16T14:31:12.441Z,88.08
2019-01-16T14:33:42.668Z,88.52
2019-01-16T14:36:29.303Z,89.10
2019-01-16T14:39:17.543Z,89.24
2019-01-16T14:42:05.883Z,88.98
2019-01-16T14:44:38.488Z,88.89
2019-01-16T14:47:11.941Z,89.20
2019-01-16T14:49:51.410Z,89.34
2019-01-16T14:52:27.245Z,89.90
2019-01-16T14:55:13.935Z,90.17
2019-01-16T14:57:53.145Z,90.63
2019-01-16T15:00:38.789Z,90.97
2019-01-16T15:03:26.006Z,91.13
2019-01-16T15:05:57.577Z,91.01
2019-01-16T15:08:33.972Z,90.95
2019-01-16T15:11:16.523Z,90.91
2019-01-16T15:14:04.836Z,90.69
2019-01-16T15:16:51.338Z,90.87
2019-01-16T15:19:21.449Z,90.62
2019-01-16T15:21:51.650Z,90.13
2019-01-16T15:24:27.910Z,90.14
2019-01-16T15:27:13.466Z,90.12
2019-01-16T15:29:59.748Z,90.01
2019-01-16T15:32:29.925Z,90.03
2019-01-16T15:35:16.410Z,89.88
2019-01-16T15:38:02.151Z,89.72
2019-01-16T15:40:56.446Z,89.72
2019-01-16T15:43:29.313Z,89.84
2019-01-16T15:45:59.475Z,89.80
2019-01-16T15:48:29.784Z,89.55
2019-01-16T15:51:11.645Z,89.55
2019-01-16T15:53:44.399Z,89.51
2019-01-16T15:56:14.610Z,89.34
2019-01-16T15:58:50.541Z,88.78
2019-01-16T16:01:35.722Z,89.18
2019-01-16T16:04:25.282Z,89.38
2019-01-16T16:07:11.299Z,89.04
2019-01-16T16:09:45.541Z,89.16
2019-01-16T16:12:31.866Z,89.43
2019-01-16T16:15:10.983Z,89.79
2019-01-16T16:17:41.079Z,90.12
2019-01-16T16:20:27.153Z,90.34
2019-01-16T16:23:03.708Z,90.33
2019-01-16T16:25:50.291Z,90.13
2019-01-16T16:28:26.440Z,89.69
2019-01-16T16:30:56.625Z,88.97
2019-01-16T16:33:29.523Z,88.33
2019-01-16T16:36:11.614Z,88.04
2019-01-16T16:38:47.468Z,87.55
2019-01-16T16:41:30.042Z,87.37
2019-01-16T16:44:16.532Z,87.12
2019-01-16T16:46:49.540Z,86.84
2019-01-16T16:49:25.389Z,86.84
2019-01-16T16:51:58.653Z,86.89
2019-01-16T16:54:45.406Z,87.07
2019-01-16T16:57:32.070Z,87.06
2019-01-16T17:00:04.827Z,87.20
2019-01-16T17:02:37.786Z,87.11
2019-01-16T17:05:11.413Z,87.24
2019-01-16T17:07:58.067Z,87.47
2019-01-16T17:10:34.092Z,87.68
2019-01-16T17:13:16.140Z,87.66
2019-01-16T17:15:52.441Z,87.70
2019-01-16T17:18:22.800Z,87.71
2019-01-16T17:20:53.060Z,87.92
2019-01-16T17:23:38.217Z,87.84
2019-01-16T17:26:11.327Z,87.93
2019-01-16T17:28:53.679Z,88.03
2019-01-16T17:31:29.572Z,87.95
2019-01-16T17:33:59.740Z,88.00
2019-01-16T17:36:29.931Z,87.99
2019-01-16T17:39:03.534Z,87.90
2019-01-16T17:41:50.300Z,87.95
2019-01-16T17:44:23.203Z,88.01
2019-01-16T17:46:59.601Z,88.05
2019-01-16T17:49:32.516Z,87.94
2019-01-16T17:52:02.881Z,88.53
2019-01-16T17:54:36.058Z,88.53
2019-01-16T17:57:23.224Z,88.56
2019-01-16T17:59:56.522Z,88.82
2019-01-16T18:02:26.865Z,89.02
2019-01-16T18:04:57.078Z,89.25
2019-01-16T18:07:27.477Z,89.44
2019-01-16T18:10:09.824Z,89.67
2019-01-16T18:12:57.559Z,89.81
2019-01-16T18:15:27.823Z,89.75
2019-01-16T18:18:04.164Z,89.96
2019-01-16T18:20:49.490Z,90.13
2019-01-16T18:23:25.348Z,90.19
2019-01-16T18:25:55.556Z,90.44
2019-01-16T18:28:28.552Z,90.62
2019-01-16T18:31:04.196Z,90.75
2019-01-16T18:33:34.377Z,90.87
2019-01-16T18:36:13.551Z,90.79
2019-01-16T18:38:55.666Z,90.68
2019-01-16T18:41:32.351Z,90.68
2019-01-16T18:44:11.720Z,90.48
2019-01-16T18:46:51.098Z,90.07
2019-01-16T18:49:21.240Z,89.91
2019-01-16T18:51:51.359Z,89.65
2019-01-16T18:54:33.560Z,89.51
2019-01-16T18:57:05.241Z,89.31
2019-01-16T18:59:36.311Z,89.31
2019-01-16T19:02:25.337Z,89.30
2019-01-16T19:04:58.675Z,89.26
2019-01-16T19:07:45.374Z,89.27
2019-01-16T19:10:27.814Z,89.04
2019-01-16T19:13:10.228Z,88.86
2019-01-16T19:15:42.935Z,88.61
2019-01-16T19:18:29.745Z,88.46
2019-01-16T19:21:02.784Z,88.25
2019-01-16T19:23:35.747Z,88.07
2019-01-16T19:26:08.989Z,87.58
2019-01-16T19:28:54.126Z,87.53
2019-01-16T19:31:24.398Z,87.49
2019-01-16T19:34:00.052Z,87.28
2019-01-16T19:36:30.217Z,87.24
2019-01-16T19:39:06.349Z,87.23
2019-01-16T19:41:42.476Z,87.37
2019-01-16T19:44:15.761Z,87.47
2019-01-16T19:46:45.954Z,87.61
2019-01-16T19:49:18.921Z,87.83
2019-01-16T19:52:02.008Z,88.09
2019-01-16T19:54:48.249Z,88.51
2019-01-16T19:57:18.608Z,88.96
2019-01-16T19:59:48.680Z,89.44
2019-01-16T20:02:31.475Z,89.85
2019-01-16T20:05:14.060Z,90.39
2019-01-16T20:07:59.375Z,90.81
2019-01-16T20:10:41.221Z,91.27
2019-01-16T20:13:14.405Z,91.54
2019-01-16T20:15:47.427Z,91.91
2019-01-16T20:18:36.099Z,92.21
2019-01-16T20:21:15.339Z,92.57
2019-01-16T20:23:48.129Z,92.84
2019-01-16T20:26:27.469Z,93.06
2019-01-16T20:29:15.891Z,93.24
2019-01-16T20:31:46.084Z,93.87
2019-01-16T20:34:31.097Z,93.87
2019-01-16T20:37:01.349Z,94.17
2019-01-16T20:39:40.127Z,94.53
2019-01-16T20:42:22.447Z,94.92
2019-01-16T20:44:52.974Z,95.23
2019-01-16T20:47:23.087Z,95.49
2019-01-16T20:50:11.888Z,95.58
2019-01-16T20:52:58.390Z,95.69
2019-01-16T20:55:34.648Z,95.61
2019-01-16T20:58:04.910Z,95.51
2019-01-16T21:00:51.414Z,95.65
2019-01-16T21:03:38.854Z,95.74
2019-01-16T21:06:27.572Z,95.84
2019-01-16T21:09:13.492Z,95.90
2019-01-16T21:11:49.695Z,95.94
2019-01-16T21:14:22.835Z,95.75
2019-01-16T21:16:53.023Z,95.68
2019-01-16T21:19:32.059Z,95.69
2019-01-16T21:22:08.210Z,95.56
2019-01-16T21:24:53.194Z,95.59
2019-01-16T21:27:40.113Z,95.77
2019-01-16T21:30:16.286Z,96.04
2019-01-16T21:32:46.421Z,95.99
2019-01-16T21:35:19.370Z,95.96
2019-01-16T21:38:06.548Z,96.07
2019-01-16T21:40:45.370Z,95.94
2019-01-16T21:43:15.651Z,95.78
2019-01-16T21:45:48.502Z,95.78
2019-01-16T21:48:21.340Z,95.65
2019-01-16T21:50:57.208Z,95.52
2019-01-16T21:53:33.382Z,94.79
2019-01-16T21:56:09.608Z,94.79
2019-01-16T21:58:51.681Z,94.67
2019-01-16T22:01:39.954Z,94.51
2019-01-16T22:04:11.281Z,94.48
2019-01-16T22:06:44.393Z,94.21
2019-01-16T22:09:15.372Z,94.21
2019-01-16T22:11:57.991Z,94.55
2019-01-16T22:14:29.156Z,94.62
2019-01-16T22:16:59.354Z,94.68
2019-01-16T22:19:29.807Z,94.80
2019-01-16T22:22:15.185Z,94.77
2019-01-16T22:24:51.077Z,94.62
2019-01-16T22:27:33.408Z,94.36
2019-01-16T22:30:18.724Z,94.20
2019-01-16T22:32:48.844Z,94.13
2019-01-16T22:35:18.975Z,94.15
2019-01-16T22:37:52.215Z,94.21
2019-01-16T22:40:22.405Z,94.18
2019-01-16T22:42:58.672Z,94.18
2019-01-16T22:45:45.470Z,94.36
2019-01-16T22:48:31.954Z,94.58
2019-01-16T22:51:20.903Z,94.90
2019-01-16T22:54:07.556Z,95.20
2019-01-16T22:56:37.681Z,95.91
2019-01-16T22:59:23.012Z,95.91
2019-01-16T23:01:55.837Z,96.53
2019-01-16T23:04:31.954Z,96.87
2019-01-16T23:07:14.117Z,96.92
2019-01-16T23:09:51.075Z,96.82
2019-01-16T23:12:27.651Z,96.61
2019-01-16T23:15:15.959Z,96.08
2019-01-16T23:17:46.066Z,95.61
2019-01-16T23:20:16.260Z,95.13
2019-01-16T23:23:01.670Z,94.66
2019-01-16T23:25:47.882Z,94.29
2019-01-16T23:28:20.483Z,93.88
2019-01-16T23:31:07.125Z,93.56
2019-01-16T23:33:50.284Z,93.23
2019-01-16T23:36:20.401Z,92.84
2019-01-16T23:38:50.504Z,92.32
2019-01-16T23:41:28.128Z,91.98
2019-01-16T23:44:13.423Z,91.76
2019-01-16T23:46:43.687Z,91.67
2019-01-16T23:49:25.861Z,91.70
2019-01-16T23:52:08.060Z,91.89
2019-01-16T23:54:40.796Z,92.03
2019-01-16T23:57:13.795Z,92.04
